Terminal Aerodrome Forecast
Issued by NWS

Home | Current Version | Previous Version | Text Only | Print | Product List | Glossary On
Versions: 1 2 3 4 5 6 7 8 9 10 11 12 13 14 15 16 17 18 19 20 21 22 23 24 25 26 27
280
FTUS41 KBOX 210523
TAFACK
TAF
KACK 210523Z 2106/2206 32005KT P6SM SKC
     FM211500 01010KT P6SM FEW200
     FM220000 18004KT P6SM BKN200
     FM220500 18004KT P6SM BKN110=

USA.gov is the U.S. government's official web portal to all federal, state and local government web resources and services.